Time;durP1;ratioP1;P1;durP2;ratioP2;P2;SDS_P1;SDS_P2;PMS_P1;PMS_P2;Temp;Humidity;BMP_temperature;BMP_pressure;BME280_temperature;BME280_humidity;BME280_pressure;Samples;Min_cycle;Max_cycle;Signal;HPM_P1;HPM_P2
2021/11/30 00:01:48;;;;;;;0.00;0.00;;;;;;;2.10;100.00;100547.66;10400590;28;20108;-68
2021/11/30 00:06:49;;;;;;;0.00;0.00;;;;;;;2.14;100.00;100540.38;10410179;28;20048;-68
2021/11/30 00:11:51;;;;;;;0.00;0.00;;;;;;;2.15;100.00;100532.41;10410171;28;20032;-69
2021/11/30 00:16:51;;;;;;;0.00;0.00;;;;;;;2.15;100.00;100519.25;10410163;28;20100;-69
2021/11/30 00:21:51;;;;;;;0.00;0.00;;;;;;;2.20;100.00;100516.28;10393308;28;20052;-68
2021/11/30 00:26:52;;;;;;;0.00;0.00;;;;;;;2.21;100.00;100504.78;10409531;28;20400;-68
2021/11/30 00:31:53;;;;;;;0.00;0.00;;;;;;;2.21;100.00;100482.00;10408378;28;20531;-68
2021/11/30 00:36:53;;;;;;;0.00;0.00;;;;;;;2.22;100.00;100477.59;10400667;28;20025;-68
2021/11/30 00:41:57;;;;;;;0.00;0.00;;;;;;;2.22;100.00;100488.94;10409154;28;20025;-68
2021/11/30 00:46:58;;;;;;;0.00;0.00;;;;;;;2.26;100.00;100476.41;10408635;28;20018;-68
2021/11/30 00:51:59;;;;;;;0.00;0.00;;;;;;;2.29;100.00;100468.28;10408643;28;20499;-68
2021/11/30 00:57:00;;;;;;;0.00;0.00;;;;;;;2.33;100.00;100458.38;10390633;28;20268;-68
2021/11/30 01:02:00;;;;;;;0.00;0.00;;;;;;;2.34;100.00;100439.03;10408573;28;20179;-68
2021/11/30 01:07:01;;;;;;;0.03;0.03;;;;;;;2.35;100.00;100433.66;10389361;28;20136;-68
2021/11/30 01:12:01;;;;;;;0.10;0.10;;;;;;;2.34;100.00;100431.97;10408239;28;20264;-69
2021/11/30 01:17:02;;;;;;;0.00;0.00;;;;;;;2.35;100.00;100424.94;10408066;28;20025;-69
2021/11/30 01:22:03;;;;;;;0.00;0.00;;;;;;;2.37;100.00;100394.94;10408101;28;20038;-68
2021/11/30 01:27:03;;;;;;;0.10;0.10;;;;;;;2.43;100.00;100398.91;10407812;28;20079;-68
2021/11/30 01:32:04;;;;;;;0.00;0.00;;;;;;;2.46;100.00;100401.28;10408530;28;20049;-68
2021/11/30 01:37:05;;;;;;;0.00;0.00;;;;;;;2.45;100.00;100399.63;10397147;28;20040;-68
2021/11/30 01:42:06;;;;;;;0.00;0.00;;;;;;;2.40;100.00;100392.09;10376585;28;20104;-68
2021/11/30 01:52:22;;;;;;;0.10;0.10;;;;;;;2.33;100.00;100337.47;10416162;28;20060;-68
2021/11/30 01:57:25;;;;;;;0.00;0.00;;;;;;;2.32;100.00;100317.41;10397465;28;20029;-68
2021/11/30 02:02:25;;;;;;;0.00;0.00;;;;;;;2.30;100.00;100299.16;10415176;28;20099;-68
2021/11/30 02:07:26;;;;;;;0.00;0.00;;;;;;;2.30;100.00;100270.22;10414831;28;20095;-67
2021/11/30 02:12:26;;;;;;;0.00;0.00;;;;;;;2.32;100.00;100256.97;10394021;28;20638;-68
2021/11/30 02:17:27;;;;;;;0.00;0.00;;;;;;;2.32;100.00;100241.19;10373614;28;20344;-68
2021/11/30 02:22:28;;;;;;;0.00;0.00;;;;;;;2.34;100.00;100226.16;10373874;28;20049;-68
2021/11/30 02:27:29;;;;;;;0.00;0.00;;;;;;;2.36;100.00;100217.19;10373214;28;20022;-67
2021/11/30 02:32:29;;;;;;;0.08;0.08;;;;;;;2.42;100.00;100189.56;10410929;28;20029;-67
2021/11/30 02:37:37;;;;;;;0.00;0.00;;;;;;;2.48;100.00;100175.94;10413699;28;20029;-68
2021/11/30 02:42:39;;;;;;;0.00;0.00;;;;;;;2.53;100.00;100176.41;10407740;28;20137;-67
2021/11/30 02:47:39;;;;;;;0.00;0.00;;;;;;;2.56;100.00;100133.25;10410981;28;20399;-68
2021/11/30 02:52:39;;;;;;;0.00;0.00;;;;;;;2.57;100.00;100129.69;10413104;28;20032;-68
2021/11/30 02:57:40;;;;;;;0.00;0.00;;;;;;;2.56;100.00;100094.66;10412850;28;20025;-68
2021/11/30 03:02:40;;;;;;;0.00;0.00;;;;;;;2.57;100.00;100083.19;10411698;28;20029;-67
2021/11/30 03:07:40;;;;;;;0.00;0.00;;;;;;;2.55;100.00;100058.81;10435864;28;20280;-67
2021/11/30 03:12:41;;;;;;;0.00;0.00;;;;;;;2.52;100.00;100047.72;10408225;28;20033;-69
2021/11/30 03:17:43;;;;;;;0.00;0.00;;;;;;;2.49;100.00;100031.22;10417248;28;20032;-68
2021/11/30 03:22:46;;;;;;;0.00;0.00;;;;;;;2.46;100.00;100006.97;10418859;28;20035;-68
2021/11/30 03:27:48;;;;;;;0.00;0.00;;;;;;;2.44;100.00;99985.25;10445476;28;20040;-68
2021/11/30 03:38:08;;;;;;;0.00;0.00;;;;;;;2.39;100.00;99948.84;10412721;28;20112;-67
2021/11/30 03:43:08;;;;;;;0.00;0.00;;;;;;;2.36;100.00;99933.34;10445815;28;20017;-69
2021/11/30 03:48:09;;;;;;;0.00;0.00;;;;;;;2.35;100.00;99921.13;10416206;28;20357;-69
2021/11/30 03:53:09;;;;;;;0.00;0.00;;;;;;;2.34;100.00;99893.19;10413479;28;20083;-69
2021/11/30 03:58:09;;;;;;;0.00;0.00;;;;;;;2.36;100.00;99879.94;10445068;28;20083;-69
2021/11/30 04:03:10;;;;;;;0.00;0.00;;;;;;;2.37;100.00;99864.03;10424423;28;20025;-69
2021/11/30 04:08:10;;;;;;;0.00;0.00;;;;;;;2.40;100.00;99853.25;10389451;28;20377;-69
2021/11/30 04:13:11;;;;;;;0.00;0.00;;;;;;;2.42;100.00;99826.84;10429148;28;20048;-69
2021/11/30 04:18:11;;;;;;;0.00;0.00;;;;;;;2.45;100.00;99805.56;10423428;28;20033;-68
2021/11/30 04:23:12;;;;;;;0.00;0.00;;;;;;;2.48;100.00;99789.53;10423297;28;20025;-68
2021/11/30 04:28:12;;;;;;;0.00;0.00;;;;;;;2.51;100.00;99784.00;10411415;28;20022;-68
2021/11/30 04:33:12;;;;;;;0.00;0.00;;;;;;;2.54;100.00;99789.00;10431203;28;20014;-68
2021/11/30 04:38:13;;;;;;;0.00;0.00;;;;;;;2.58;100.00;99761.47;10429479;28;20267;-68
2021/11/30 04:43:13;;;;;;;0.00;0.00;;;;;;;2.66;100.00;99766.06;10422900;28;20029;-68
2021/11/30 04:48:15;;;;;;;0.00;0.00;;;;;;;2.73;100.00;99740.88;10414319;28;20518;-67
2021/11/30 04:53:16;;;;;;;0.10;0.10;;;;;;;2.82;100.00;99741.88;10430199;28;20052;-68
2021/11/30 04:58:17;;;;;;;0.00;0.00;;;;;;;2.89;100.00;99720.16;10415411;28;20069;-68
2021/11/30 05:03:18;;;;;;;0.00;0.00;;;;;;;2.97;100.00;99708.09;10418604;28;20025;-68
2021/11/30 05:08:19;;;;;;;0.00;0.00;;;;;;;3.03;100.00;99687.34;10432327;28;20467;-68
2021/11/30 05:13:19;;;;;;;0.00;0.00;;;;;;;3.13;100.00;99685.53;10396671;28;20488;-68
2021/11/30 05:18:19;;;;;;;0.00;0.00;;;;;;;3.21;100.00;99655.91;10408950;28;20013;-69
2021/11/30 05:23:28;;;;;;;0.00;0.00;;;;;;;3.27;100.00;99657.16;10421053;28;20034;-68
2021/11/30 05:28:28;;;;;;;0.00;0.00;;;;;;;3.32;100.00;99647.03;10425125;28;20288;-69
2021/11/30 05:33:28;;;;;;;0.00;0.00;;;;;;;3.38;100.00;99652.56;10436264;28;20088;-68
2021/11/30 05:38:30;;;;;;;0.00;0.00;;;;;;;3.44;100.00;99645.88;10432854;28;20023;-68
2021/11/30 05:43:30;;;;;;;0.00;0.00;;;;;;;3.51;100.00;99646.97;10432887;28;20033;-68
2021/11/30 05:48:32;;;;;;;0.00;0.00;;;;;;;3.58;100.00;99649.88;10442368;28;20021;-68
2021/11/30 05:53:32;;;;;;;0.00;0.00;;;;;;;3.64;100.00;99636.13;10406133;28;20025;-68
2021/11/30 05:58:36;;;;;;;0.00;0.00;;;;;;;3.75;100.00;99645.66;10433970;28;20100;-68
2021/11/30 06:08:50;;;;;;;0.00;0.00;;;;;;;3.90;100.00;99638.94;10417465;28;20385;-68
2021/11/30 06:13:51;;;;;;;0.00;0.00;;;;;;;3.97;100.00;99631.28;10426398;28;20017;-68
2021/11/30 06:18:52;;;;;;;0.00;0.00;;;;;;;4.04;100.00;99638.47;10410501;28;20082;-68
2021/11/30 06:23:52;;;;;;;0.00;0.00;;;;;;;4.11;100.00;99649.25;10409647;28;20098;-69
2021/11/30 06:28:53;;;;;;;0.00;0.00;;;;;;;4.20;100.00;99655.44;10420010;28;20128;-69
2021/11/30 06:33:53;;;;;;;0.00;0.00;;;;;;;4.29;100.00;99644.84;10411861;28;20029;-69
2021/11/30 06:38:57;;;;;;;0.00;0.00;;;;;;;4.42;100.00;99656.84;10425154;28;20037;-69
2021/11/30 06:43:57;;;;;;;0.00;0.00;;;;;;;4.49;100.00;99655.28;10421924;28;20021;-69
2021/11/30 06:48:57;;;;;;;0.00;0.00;;;;;;;4.54;100.00;99651.22;10432284;28;20079;-69
2021/11/30 06:53:58;;;;;;;0.00;0.00;;;;;;;4.60;100.00;99648.97;10420854;28;20135;-69
2021/11/30 06:58:58;;;;;;;0.00;0.00;;;;;;;4.69;100.00;99666.53;10427523;28;20017;-69
2021/11/30 07:04:00;;;;;;;0.00;0.00;;;;;;;4.79;100.00;99675.19;10433792;28;20013;-67
2021/11/30 07:14:04;;;;;;;0.00;0.00;;;;;;;4.97;100.00;99665.50;10464770;22;20044;-65
2021/11/30 07:19:05;;;;;;;0.00;0.00;;;;;;;5.07;100.00;99677.78;10376189;28;20021;-64
2021/11/30 07:24:06;;;;;;;0.00;0.00;;;;;;;5.17;100.00;99660.03;10355174;28;20408;-64
2021/11/30 07:29:06;;;;;;;0.00;0.00;;;;;;;5.22;100.00;99655.94;10372372;28;20022;-64
2021/11/30 07:34:06;;;;;;;0.00;0.00;;;;;;;5.24;100.00;99662.91;10372653;28;20277;-64
2021/11/30 07:39:07;;;;;;;0.00;0.00;;;;;;;5.29;100.00;99671.16;10371780;28;20033;-67
2021/11/30 07:44:07;;;;;;;0.00;0.00;;;;;;;5.36;100.00;99669.59;10371667;28;20048;-67
2021/11/30 07:49:07;;;;;;;0.00;0.00;;;;;;;5.38;99.08;99660.53;10370518;28;20125;-67
2021/11/30 07:54:07;;;;;;;0.00;0.00;;;;;;;5.37;98.23;99674.72;10371972;28;20656;-64
2021/11/30 07:59:08;;;;;;;0.00;0.00;;;;;;;5.37;96.79;99676.53;10409315;28;20483;-64
2021/11/30 08:04:09;;;;;;;0.00;0.00;;;;;;;5.42;96.27;99676.91;10412764;28;20363;-65
2021/11/30 08:09:09;;;;;;;0.00;0.00;;;;;;;5.46;96.72;99688.81;10410966;28;20033;-68
2021/11/30 08:14:11;;;;;;;0.00;0.00;;;;;;;5.48;97.20;99694.75;10393859;28;20034;-65
2021/11/30 08:19:11;;;;;;;0.00;0.00;;;;;;;5.48;97.11;99686.03;10410716;28;20025;-69
2021/11/30 08:24:11;;;;;;;0.00;0.00;;;;;;;5.50;95.83;99684.03;10411371;28;20025;-68
2021/11/30 08:29:12;;;;;;;0.00;0.00;;;;;;;5.49;95.65;99688.50;10410290;28;20052;-69
2021/11/30 08:34:12;;;;;;;0.00;0.00;;;;;;;5.52;95.28;99693.47;10410688;28;20041;-69
2021/11/30 08:39:12;;;;;;;0.00;0.00;;;;;;;5.54;95.87;99691.50;10410215;28;20468;-67
2021/11/30 08:44:13;;;;;;;0.00;0.00;;;;;;;5.54;95.71;99695.97;10392519;28;20065;-68
2021/11/30 08:49:13;;;;;;;0.00;0.00;;;;;;;5.57;96.04;99708.84;10406972;28;20549;-68
2021/11/30 08:54:14;;;;;;;0.00;0.00;;;;;;;5.59;96.28;99710.38;10362416;28;20017;-69
2021/11/30 08:59:14;;;;;;;0.00;0.00;;;;;;;5.59;96.98;99726.22;10374457;28;20021;-68
2021/11/30 09:04:15;;;;;;;0.00;0.00;;;;;;;5.58;98.84;99718.44;10389217;28;20030;-67
2021/11/30 09:09:16;;;;;;;0.00;0.00;;;;;;;5.52;98.38;99719.06;10401330;28;20053;-68
2021/11/30 09:14:21;;;;;;;0.00;0.00;;;;;;;5.44;97.38;99719.84;10388986;28;20268;-68
2021/11/30 09:19:22;;;;;;;0.00;0.00;;;;;;;5.35;96.88;99721.59;10405520;28;20028;-68
2021/11/30 09:24:22;;;;;;;0.00;0.00;;;;;;;5.35;96.58;99718.94;10434454;28;20631;-70
2021/11/30 09:29:23;;;;;;;0.00;0.00;;;;;;;5.43;97.25;99726.09;10406640;28;20028;-68
2021/11/30 09:34:24;;;;;;;0.00;0.00;;;;;;;5.43;98.44;99736.66;10379026;28;20354;-68
2021/11/30 09:39:25;;;;;;;0.00;0.00;;;;;;;5.41;99.77;99725.41;10369230;28;20384;-65
2021/11/30 09:44:25;;;;;;;0.00;0.00;;;;;;;5.45;100.00;99714.38;10386516;28;20013;-66
2021/11/30 09:49:27;;;;;;;0.00;0.00;;;;;;;5.55;98.81;99703.72;10399060;28;20284;-66
2021/11/30 09:54:27;;;;;;;0.00;0.00;;;;;;;5.67;97.07;99712.22;10405178;28;20022;-65
2021/11/30 09:59:27;;;;;;;0.00;0.00;;;;;;;5.84;93.24;99721.91;10362229;28;20476;-66
2021/11/30 10:04:27;;;;;;;0.00;0.00;;;;;;;5.99;90.29;99711.66;10383588;28;20279;-66
2021/11/30 10:09:29;;;;;;;0.00;0.00;;;;;;;6.07;88.92;99721.41;10399400;28;20018;-66
2021/11/30 10:14:35;;;;;;;0.00;0.00;;;;;;;6.03;88.23;99752.63;10411180;28;20032;-66
2021/11/30 10:19:38;;;;;;;0.00;0.00;;;;;;;5.94;88.69;99736.91;10423389;28;20017;-67
2021/11/30 10:24:38;;;;;;;0.00;0.00;;;;;;;5.88;89.00;99743.59;10393483;28;20029;-66
2021/11/30 10:29:42;;;;;;;0.00;0.00;;;;;;;5.86;88.81;99746.38;10404871;28;20025;-66
2021/11/30 10:34:42;;;;;;;0.00;0.00;;;;;;;5.98;86.21;99743.50;10394714;28;20126;-65
2021/11/30 10:39:44;;;;;;;0.00;0.00;;;;;;;6.19;86.04;99729.91;10402497;28;20569;-67
2021/11/30 10:44:47;;;;;;;0.00;0.00;;;;;;;6.53;86.92;99761.66;10404380;28;20029;-66
2021/11/30 10:50:00;;;;;;;0.00;0.00;;;;;;;6.51;82.65;99768.91;10445996;28;20021;-66
2021/11/30 10:55:03;;;;;;;0.00;0.00;;;;;;;6.49;82.60;99777.03;10401818;28;20032;-66
2021/11/30 11:00:24;;;;;;;0.00;0.00;;;;;;;6.47;83.24;99763.13;10431415;28;20023;-66
2021/11/30 11:05:28;;;;;;;0.00;0.00;;;;;;;6.40;82.86;99771.81;10375715;28;20040;-66
2021/11/30 11:10:29;;;;;;;0.03;0.03;;;;;;;6.40;79.46;99777.97;10381920;28;20026;-67
2021/11/30 11:15:37;;;;;;;0.00;0.00;;;;;;;6.43;76.99;99772.38;10354506;28;20033;-65
2021/11/30 11:20:38;;;;;;;0.00;0.00;;;;;;;6.44;74.56;99765.25;10382844;28;20031;-65
2021/11/30 11:25:38;;;;;;;0.00;0.00;;;;;;;6.48;72.80;99772.69;10391618;28;20029;-66
2021/11/30 11:30:40;;;;;;;0.00;0.00;;;;;;;6.50;73.75;99783.13;10399188;28;20856;-65
2021/11/30 11:35:41;;;;;;;0.00;0.00;;;;;;;6.44;74.29;99784.59;10442462;28;20037;-65
2021/11/30 11:40:42;;;;;;;0.00;0.00;;;;;;;6.37;75.63;99809.19;10413491;28;20547;-66
2021/11/30 11:45:43;;;;;;;0.00;0.00;;;;;;;6.26;77.20;99813.75;10453764;28;20266;-66
2021/11/30 11:50:56;;;;;;;0.00;0.00;;;;;;;6.18;78.28;99781.97;10453280;28;20048;-65
2021/11/30 11:56:16;;;;;;;0.00;0.00;;;;;;;6.13;80.12;99773.66;10453251;28;20021;-66
2021/11/30 12:01:23;;;;;;;0.00;0.00;;;;;;;6.09;80.70;99789.03;10428259;28;20024;-66
2021/11/30 12:06:26;;;;;;;0.00;0.00;;;;;;;6.12;81.40;99782.59;10411626;28;20108;-67
2021/11/30 12:11:41;;;;;;;0.00;0.00;;;;;;;6.12;80.12;99798.47;10411167;28;20029;-67
2021/11/30 12:17:07;;;;;;;0.00;0.00;;;;;;;6.09;79.55;99804.88;10393336;28;20485;-66
2021/11/30 12:22:10;;;;;;;0.00;0.00;;;;;;;6.01;77.47;99804.81;10410951;28;20021;-65
2021/11/30 12:27:13;;;;;;;0.00;0.00;;;;;;;6.02;80.16;99817.06;10410580;28;20374;-66
2021/11/30 12:32:22;;;;;;;0.00;0.00;;;;;;;5.73;79.99;99808.53;10409984;28;20029;-67
2021/11/30 12:37:26;;;;;;;0.00;0.00;;;;;;;5.75;78.67;99810.03;10410641;28;20017;-66
2021/11/30 12:42:28;;;;;;;0.00;0.00;;;;;;;5.85;78.74;99824.03;10410733;28;20028;-65
2021/11/30 12:47:28;;;;;;;0.10;0.10;;;;;;;5.89;77.37;99837.75;10392057;28;20033;-66
2021/11/30 12:52:34;;;;;;;0.00;0.00;;;;;;;5.87;78.65;99831.78;10410312;28;20112;-66
2021/11/30 12:57:36;;;;;;;0.00;0.00;;;;;;;5.83;78.99;99838.38;10392176;28;20024;-66
2021/11/30 13:02:45;;;;;;;0.00;0.00;;;;;;;5.84;77.91;99840.00;10408870;28;20043;-66
2021/11/30 13:07:51;;;;;;;0.00;0.00;;;;;;;5.83;78.30;99855.03;10410261;28;20030;-66
2021/11/30 13:12:54;;;;;;;0.00;0.00;;;;;;;5.83;77.44;99864.78;10435060;23;20340;-71
2021/11/30 13:17:56;;;;;;;0.00;0.00;;;;;;;5.82;77.38;99863.13;10443436;28;20036;-70
2021/11/30 13:22:57;;;;;;;0.00;0.00;;;;;;;5.79;78.63;99874.84;10448317;28;20406;-70
2021/11/30 13:28:01;;;;;;;0.00;0.00;;;;;;;5.74;79.73;99874.47;10447687;28;20021;-71
2021/11/30 13:33:08;;;;;;;0.00;0.00;;;;;;;5.78;80.24;99877.63;10389962;28;20120;-70
2021/11/30 13:38:34;;;;;;;0.00;0.00;;;;;;;5.72;78.85;99884.34;10389000;28;20068;-71
2021/11/30 13:43:39;;;;;;;0.00;0.00;;;;;;;5.64;79.01;99895.69;10406761;28;20095;-72
2021/11/30 13:49:03;;;;;;;0.00;0.00;;;;;;;5.63;78.26;99893.16;10414898;28;20080;-71
2021/11/30 13:54:17;;;;;;;0.00;0.00;;;;;;;5.54;79.82;99908.09;10414714;28;20018;-72
2021/11/30 13:59:24;;;;;;;0.00;0.00;;;;;;;5.48;81.21;99926.38;10413352;28;20096;-71
2021/11/30 14:04:27;;;;;;;0.00;0.00;;;;;;;5.47;81.57;99908.84;10373921;28;20022;-71
2021/11/30 14:09:30;;;;;;;0.00;0.00;;;;;;;5.48;83.27;99936.94;10355348;28;20029;-71
2021/11/30 14:14:34;;;;;;;0.00;0.00;;;;;;;5.49;84.93;99931.50;10373086;28;20045;-71
2021/11/30 14:19:41;;;;;;;0.00;0.00;;;;;;;5.56;85.37;99952.88;10373092;28;20093;-71
2021/11/30 14:24:56;;;;;;;0.00;0.00;;;;;;;5.64;85.54;99968.78;10355240;28;20026;-71
2021/11/30 14:29:56;;;;;;;;;;;;;;;5.70;83.53;99970.84;10379416;28;20025;-71
2021/11/30 14:35:04;;;;;;;0.00;0.00;;;;;;;5.71;82.56;99976.97;10362461;28;19909;-71
2021/11/30 14:40:09;;;;;;;0.00;0.00;;;;;;;5.71;78.82;99974.34;10372318;28;20092;-71
2021/11/30 14:45:25;;;;;;;0.00;0.00;;;;;;;5.63;76.76;99986.47;10372207;28;20190;-71
2021/11/30 14:50:27;;;;;;;0.00;0.00;;;;;;;5.54;76.98;99999.75;10372013;28;20072;-70
2021/11/30 14:55:30;;;;;;;0.00;0.00;;;;;;;5.41;77.17;100006.19;10353795;28;20105;-71
2021/11/30 15:00:35;;;;;;;0.00;0.00;;;;;;;5.27;78.86;100022.50;10379545;28;20076;-71
2021/11/30 15:05:49;;;;;;;0.00;0.00;;;;;;;5.15;79.51;100031.59;10375958;28;20034;-72
2021/11/30 15:11:04;;;;;;;0.00;0.00;;;;;;;5.07;80.08;100050.78;10389315;28;20045;-71
2021/11/30 15:16:21;;;;;;;0.00;0.00;;;;;;;5.03;80.91;100073.13;10390252;28;20056;-72
2021/11/30 15:21:21;;;;;;;0.00;0.00;;;;;;;4.98;80.74;100085.94;10390232;28;20113;-72
2021/11/30 15:26:27;;;;;;;0.00;0.00;;;;;;;4.95;80.66;100088.88;10383433;28;20116;-71
2021/11/30 15:31:27;;;;;;;0.00;0.00;;;;;;;4.89;80.17;100103.44;10388515;28;20017;-73
2021/11/30 15:36:28;;;;;;;0.00;0.00;;;;;;;4.87;79.69;100086.91;10396724;28;20030;-72
2021/11/30 15:41:28;;;;;;;0.00;0.00;;;;;;;4.96;79.50;100109.00;10391349;28;20028;-71
2021/11/30 15:46:28;;;;;;;0.00;0.00;;;;;;;5.06;80.69;100124.81;10391791;28;20017;-72
2021/11/30 15:51:31;;;;;;;0.00;0.00;;;;;;;5.01;82.05;100143.72;10390635;28;20013;-72
2021/11/30 16:01:50;;;;;;;0.00;0.00;;;;;;;4.91;83.75;100153.44;10386792;28;20033;-71
2021/11/30 16:06:54;;;;;;;0.00;0.00;;;;;;;4.90;83.30;100151.78;10390535;28;20029;-72
2021/11/30 16:11:54;;;;;;;0.00;0.00;;;;;;;4.88;84.07;100153.72;10388845;28;20045;-72
2021/11/30 16:16:57;;;;;;;0.00;0.00;;;;;;;4.84;84.87;100154.97;10402088;28;20036;-72
2021/11/30 16:22:00;;;;;;;0.00;0.00;;;;;;;4.84;85.95;100173.44;10410619;28;20268;-71
2021/11/30 16:27:00;;;;;;;0.00;0.00;;;;;;;4.80;85.68;100172.03;10395692;28;20072;-73
2021/11/30 16:32:01;;;;;;;0.00;0.00;;;;;;;4.82;85.03;100178.84;10388759;28;20461;-72
2021/11/30 16:37:02;;;;;;;0.00;0.00;;;;;;;4.86;83.66;100182.91;10384223;28;20044;-72
2021/11/30 16:42:03;;;;;;;0.00;0.00;;;;;;;4.82;84.65;100165.66;10400183;28;20279;-72
2021/11/30 16:47:04;;;;;;;0.00;0.00;;;;;;;4.79;84.83;100168.56;10397742;28;20060;-72
2021/11/30 16:52:06;;;;;;;0.00;0.00;;;;;;;4.73;84.03;100188.44;10362331;28;20025;-71
2021/11/30 16:57:07;;;;;;;0.00;0.00;;;;;;;4.67;84.33;100183.69;10388318;28;20014;-72
2021/11/30 17:02:07;;;;;;;0.00;0.00;;;;;;;4.67;84.83;100188.16;10375281;28;20021;-72
2021/11/30 17:07:07;;;;;;;0.00;0.00;;;;;;;4.65;84.67;100198.81;10385269;28;20022;-72
2021/11/30 17:12:08;;;;;;;0.00;0.00;;;;;;;4.58;85.81;100189.78;10391372;28;20033;-71
2021/11/30 17:17:09;;;;;;;0.00;0.00;;;;;;;4.50;86.55;100192.28;10399154;28;20025;-71
2021/11/30 17:22:09;;;;;;;0.00;0.00;;;;;;;4.42;86.44;100192.97;10402452;28;20104;-71
2021/11/30 17:27:09;;;;;;;0.00;0.00;;;;;;;4.30;86.23;100212.47;10371405;28;20383;-72
2021/11/30 17:32:10;;;;;;;0.00;0.00;;;;;;;4.15;87.24;100227.00;10386169;28;20021;-71
2021/11/30 17:37:15;;;;;;;0.00;0.00;;;;;;;4.06;88.05;100245.25;10387100;28;20280;-73
2021/11/30 17:42:15;;;;;;;0.00;0.00;;;;;;;3.96;88.11;100251.47;10396352;28;20021;-72
2021/11/30 17:47:15;;;;;;;0.00;0.00;;;;;;;3.87;89.17;100250.47;10392007;28;20033;-72
2021/11/30 17:52:16;;;;;;;0.00;0.00;;;;;;;3.85;89.71;100255.00;10405176;28;20025;-72
2021/11/30 17:57:16;;;;;;;0.00;0.00;;;;;;;3.90;89.85;100268.63;10414714;28;20113;-71
2021/11/30 18:02:23;;;;;;;0.00;0.00;;;;;;;4.01;89.34;100270.34;10414534;28;20041;-71
2021/11/30 18:07:24;;;;;;;0.00;0.00;;;;;;;4.05;90.64;100269.97;10414245;28;20895;-70
2021/11/30 18:12:24;;;;;;;0.00;0.00;;;;;;;4.11;90.03;100275.69;10414049;28;20032;-70
2021/11/30 18:17:25;;;;;;;0.00;0.00;;;;;;;4.11;89.79;100294.13;10395893;28;20021;-70
2021/11/30 18:22:26;;;;;;;0.00;0.00;;;;;;;4.01;90.53;100296.69;10377207;28;20049;-70
2021/11/30 18:27:27;;;;;;;0.00;0.00;;;;;;;3.85;91.86;100310.34;10372733;28;20428;-71
2021/11/30 18:32:27;;;;;;;0.00;0.00;;;;;;;3.68;92.47;100306.47;10372126;28;20037;-70
2021/11/30 18:37:27;;;;;;;0.00;0.00;;;;;;;3.49;92.78;100316.84;10372136;28;20026;-71
2021/11/30 18:42:28;;;;;;;0.00;0.00;;;;;;;3.34;93.80;100322.41;10372341;28;20307;-70
2021/11/30 18:47:28;;;;;;;0.00;0.00;;;;;;;3.27;95.03;100330.94;10371257;28;20292;-71
2021/11/30 18:52:28;;;;;;;0.00;0.00;;;;;;;3.25;94.54;100324.94;10371726;28;20026;-70
2021/11/30 18:57:29;;;;;;;0.00;0.00;;;;;;;3.18;95.21;100328.09;10371181;28;20053;-70
2021/11/30 19:02:29;;;;;;;0.00;0.00;;;;;;;3.07;94.63;100322.84;10370949;28;20026;-70
2021/11/30 19:07:29;;;;;;;0.00;0.00;;;;;;;2.97;95.65;100335.06;10370480;28;20422;-70
2021/11/30 19:12:30;;;;;;;0.00;0.00;;;;;;;2.98;95.66;100341.16;10388759;23;20139;-67
2021/11/30 19:17:30;;;;;;;0.00;0.00;;;;;;;3.04;96.31;100344.13;10394581;28;20033;-67
2021/11/30 19:22:31;;;;;;;0.00;0.00;;;;;;;3.12;96.39;100347.00;10372398;28;20026;-68
2021/11/30 19:27:31;;;;;;;0.00;0.00;;;;;;;3.16;96.26;100348.41;10354151;28;20291;-68
2021/11/30 19:32:32;;;;;;;0.00;0.00;;;;;;;3.21;96.39;100339.34;10372507;28;20022;-68
2021/11/30 19:37:32;;;;;;;0.00;0.00;;;;;;;3.25;95.75;100351.28;10353884;28;20284;-67
2021/11/30 19:42:33;;;;;;;0.00;0.00;;;;;;;3.30;95.71;100359.63;10371247;28;20036;-68
2021/11/30 19:47:33;;;;;;;0.00;0.00;;;;;;;3.37;95.53;100366.06;10373915;28;20029;-68
2021/11/30 19:52:33;;;;;;;0.00;0.00;;;;;;;3.47;95.63;100379.34;10371600;28;20026;-68
2021/11/30 19:57:34;;;;;;;0.00;0.00;;;;;;;3.53;95.63;100369.16;10371633;28;20036;-68
2021/11/30 20:07:53;;;;;;;0.00;0.00;;;;;;;3.52;94.79;100362.22;10370308;28;20521;-67
2021/11/30 20:12:54;;;;;;;0.00;0.00;;;;;;;3.52;94.58;100362.22;10370684;28;20034;-67
2021/11/30 20:17:56;;;;;;;0.08;0.08;;;;;;;3.46;94.72;100354.81;10369898;28;20121;-68
2021/11/30 20:22:58;;;;;;;0.00;0.00;;;;;;;3.37;94.51;100348.50;10370138;28;20076;-68
2021/11/30 20:28:00;;;;;;;0.00;0.00;;;;;;;3.26;94.35;100358.19;10369756;28;20037;-67
2021/11/30 20:33:02;;;;;;;0.00;0.00;;;;;;;3.12;95.01;100357.53;10370084;28;20101;-68
2021/11/30 20:43:28;;;;;;;0.00;0.00;;;;;;;2.75;95.52;100335.94;10369818;28;20029;-67
2021/11/30 20:48:30;;;;;;;0.00;0.00;;;;;;;2.59;96.44;100335.44;10354343;28;20041;-68
2021/11/30 20:53:31;;;;;;;0.00;0.00;;;;;;;2.44;96.98;100332.22;10351658;28;20021;-67
2021/11/30 20:58:31;;;;;;;0.00;0.00;;;;;;;2.23;96.85;100332.91;10368572;28;20057;-68
2021/11/30 21:03:34;;;;;;;0.00;0.00;;;;;;;2.07;97.89;100336.84;10369189;28;20362;-67
2021/11/30 21:08:34;;;;;;;0.00;0.00;;;;;;;1.94;99.18;100335.13;10368917;28;20022;-68
2021/11/30 21:13:34;;;;;;;0.00;0.00;;;;;;;1.89;99.56;100347.81;10369038;28;20035;-67
2021/11/30 21:18:36;;;;;;;0.00;0.00;;;;;;;1.87;99.80;100360.19;10371057;28;20082;-70
2021/11/30 21:23:36;;;;;;;0.00;0.00;;;;;;;1.87;100.00;100354.94;10368447;28;20038;-68
2021/11/30 21:28:36;;;;;;;0.00;0.00;;;;;;;1.91;100.00;100352.91;10368127;28;20034;-69
2021/11/30 21:33:38;;;;;;;0.00;0.00;;;;;;;2.01;100.00;100351.28;10368443;28;20033;-71
2021/11/30 21:38:38;;;;;;;0.00;0.00;;;;;;;2.15;100.00;100350.22;10349957;28;20037;-67
2021/11/30 21:43:38;;;;;;;0.00;0.00;;;;;;;2.32;100.00;100356.81;10368332;28;20044;-67
2021/11/30 21:48:40;;;;;;;0.00;0.00;;;;;;;2.49;100.00;100359.81;10370019;28;20045;-67
2021/11/30 21:53:41;;;;;;;0.00;0.00;;;;;;;2.61;99.93;100344.06;10368002;28;20120;-67
2021/11/30 21:58:42;;;;;;;0.00;0.00;;;;;;;2.68;100.00;100335.59;10367456;28;20028;-66
2021/11/30 22:03:43;;;;;;;0.00;0.00;;;;;;;2.75;100.00;100327.22;10368112;28;20272;-64
2021/11/30 22:08:44;;;;;;;0.00;0.00;;;;;;;2.75;99.49;100312.25;10374399;28;20503;-66
2021/11/30 22:13:44;;;;;;;0.00;0.00;;;;;;;2.69;100.00;100300.44;10375567;28;20113;-66
2021/11/30 22:18:44;;;;;;;0.00;0.00;;;;;;;2.68;100.00;100296.13;10377925;28;20109;-66
2021/11/30 22:23:45;;;;;;;0.00;0.00;;;;;;;2.75;100.00;100293.84;10375358;28;20261;-66
2021/11/30 22:28:47;;;;;;;0.00;0.00;;;;;;;2.81;100.00;100289.91;10374026;28;20389;-65
2021/11/30 22:33:47;;;;;;;0.00;0.00;;;;;;;2.86;100.00;100295.63;10374556;28;20260;-66
2021/11/30 22:38:48;;;;;;;0.00;0.00;;;;;;;2.89;100.00;100292.75;10373580;28;20021;-65
2021/11/30 22:43:50;;;;;;;0.00;0.00;;;;;;;2.92;100.00;100281.97;10374489;28;20205;-66
2021/11/30 22:48:50;;;;;;;0.00;0.00;;;;;;;2.97;100.00;100271.94;10375837;28;20535;-65
2021/11/30 22:53:51;;;;;;;0.00;0.00;;;;;;;2.98;100.00;100249.09;10373784;28;20021;-65
2021/11/30 22:58:51;;;;;;;0.00;0.00;;;;;;;2.94;100.00;100248.50;10373279;28;20268;-66
2021/11/30 23:03:51;;;;;;;0.00;0.00;;;;;;;2.90;100.00;100250.53;10373444;28;20424;-66
2021/11/30 23:08:51;;;;;;;0.00;0.00;;;;;;;2.86;100.00;100237.75;10372942;28;20473;-65
2021/11/30 23:13:52;;;;;;;0.00;0.00;;;;;;;2.86;100.00;100229.88;10373108;28;20492;-65
2021/11/30 23:18:52;;;;;;;0.00;0.00;;;;;;;2.84;100.00;100223.88;10371031;28;20272;-66
2021/11/30 23:23:54;;;;;;;0.10;0.10;;;;;;;2.86;100.00;100201.75;10372844;28;20272;-67
2021/11/30 23:28:56;;;;;;;0.00;0.00;;;;;;;2.92;100.00;100208.31;10388298;28;20036;-66
2021/11/30 23:33:58;;;;;;;0.00;0.00;;;;;;;2.96;100.00;100196.56;10380088;28;20098;-66
2021/11/30 23:39:01;;;;;;;0.00;0.00;;;;;;;3.05;100.00;100185.28;10369761;28;20053;-66
2021/11/30 23:44:02;;;;;;;0.00;0.00;;;;;;;3.10;100.00;100172.59;10392059;28;20045;-66
2021/11/30 23:49:02;;;;;;;0.00;0.00;;;;;;;3.15;100.00;100153.81;10400084;28;20075;-66
2021/11/30 23:54:03;;;;;;;0.00;0.00;;;;;;;3.24;100.00;100149.56;10393574;28;20538;-65
2021/11/30 23:59:04;;;;;;;0.00;0.00;;;;;;;3.28;100.00;100120.22;10392906;28;20299;-66
